createdAt,value
2023-07-24T00:00:04.737Z,70.20
2023-07-24T00:00:16.733Z,69.96
2023-07-24T00:00:28.777Z,70.04
2023-07-24T00:00:41.567Z,70.50
2023-07-24T00:00:53.629Z,70.34
2023-07-24T00:01:05.765Z,70.27
2023-07-24T00:01:19.051Z,70.14
2023-07-24T00:01:31.108Z,70.32
2023-07-24T00:01:43.334Z,70.26
2023-07-24T00:01:55.326Z,70.40
2023-07-24T00:02:07.588Z,70.11
2023-07-24T00:02:19.547Z,70.50
2023-07-24T00:02:31.603Z,70.49
2023-07-24T00:02:43.633Z,70.21
2023-07-24T00:02:57.114Z,70.25
2023-07-24T00:03:09.332Z,70.15
2023-07-24T00:03:21.417Z,70.99
2023-07-24T00:03:33.448Z,71.26
2023-07-24T00:03:46.239Z,71.85
2023-07-24T00:03:59.895Z,72.61
2023-07-24T00:04:11.867Z,71.91
2023-07-24T00:04:23.847Z,72.56
2023-07-24T00:04:35.926Z,72.60
2023-07-24T00:04:48.275Z,73.24
2023-07-24T00:05:00.268Z,74.61
2023-07-24T00:05:12.394Z,74.55
2023-07-24T00:05:24.350Z,74.95
2023-07-24T00:05:36.400Z,75.01
2023-07-24T00:05:48.438Z,75.32
2023-07-24T00:06:00.623Z,75.70
2023-07-24T00:06:12.761Z,75.46
2023-07-24T00:06:24.881Z,74.65
2023-07-24T00:06:36.968Z,75.11
2023-07-24T00:06:48.976Z,75.10
2023-07-24T00:07:01.817Z,74.70
2023-07-24T00:07:13.788Z,74.76
2023-07-24T00:07:26.150Z,75.03
2023-07-24T00:07:38.154Z,75.39
2023-07-24T00:07:50.134Z,75.58
2023-07-24T00:08:03.050Z,76.50
2023-07-24T00:08:14.999Z,76.28
2023-07-24T00:08:27.289Z,76.28
2023-07-24T00:08:39.529Z,76.58
2023-07-24T00:08:51.553Z,76.65
2023-07-24T00:09:03.574Z,77.25
2023-07-24T00:09:15.967Z,77.69
2023-07-24T00:09:28.038Z,77.42
2023-07-24T00:09:39.990Z,77.28
2023-07-24T00:09:52.026Z,76.65
2023-07-24T00:10:04.722Z,76.80
2023-07-24T00:10:16.734Z,77.55
2023-07-24T00:10:28.716Z,76.71
2023-07-24T00:10:40.731Z,77.03
2023-07-24T00:10:52.731Z,76.62
2023-07-24T00:11:08.622Z,76.90
2023-07-24T00:11:20.603Z,76.43
2023-07-24T00:11:32.931Z,76.07
2023-07-24T00:11:44.861Z,76.44
2023-07-24T00:11:56.871Z,76.07
2023-07-24T00:12:09.085Z,76.38
2023-07-24T00:12:21.098Z,76.57
2023-07-24T00:12:33.140Z,76.21
2023-07-24T00:12:45.134Z,75.75
2023-07-24T00:12:57.090Z,75.67
2023-07-24T00:13:09.758Z,75.17
2023-07-24T00:13:21.788Z,75.41
2023-07-24T00:13:33.759Z,75.27
2023-07-24T00:13:46.021Z,75.27
2023-07-24T00:13:58.030Z,75.31
2023-07-24T00:14:10.030Z,75.23
2023-07-24T00:14:21.997Z,75.09
2023-07-24T00:14:33.974Z,75.38
2023-07-24T00:14:45.923Z,76.26
2023-07-24T00:14:57.863Z,76.55
2023-07-24T00:15:10.216Z,76.72
2023-07-24T00:15:22.381Z,76.32
2023-07-24T00:15:34.431Z,76.28
2023-07-24T00:15:46.384Z,75.77
2023-07-24T00:15:58.633Z,75.60
2023-07-24T00:16:11.275Z,75.71
2023-07-24T00:16:23.279Z,75.96
2023-07-24T00:16:35.298Z,77.01
2023-07-24T00:16:47.267Z,76.28
2023-07-24T00:16:59.304Z,76.22
2023-07-24T00:17:11.325Z,76.01
2023-07-24T00:17:23.465Z,75.63
2023-07-24T00:17:35.567Z,75.49
2023-07-24T00:17:47.545Z,75.46
2023-07-24T00:17:59.694Z,75.38
2023-07-24T00:18:11.749Z,75.94
2023-07-24T00:18:23.861Z,75.60
2023-07-24T00:18:35.962Z,75.90
2023-07-24T00:18:47.939Z,75.63
2023-07-24T00:18:59.956Z,75.99
2023-07-24T00:19:11.980Z,75.95
2023-07-24T00:19:24.024Z,75.99
2023-07-24T00:19:36.106Z,76.04
2023-07-24T00:19:48.134Z,75.87
2023-07-24T00:20:00.188Z,76.23
2023-07-24T00:20:12.739Z,76.52
2023-07-24T00:20:25.738Z,76.67
2023-07-24T00:20:37.691Z,76.90
2023-07-24T00:20:49.659Z,77.09
2023-07-24T00:21:01.658Z,76.88
2023-07-24T00:21:14.521Z,76.69
2023-07-24T00:21:26.521Z,76.53
2023-07-24T00:21:38.468Z,76.79
2023-07-24T00:21:50.414Z,76.29
2023-07-24T00:22:02.718Z,76.28
2023-07-24T00:22:14.660Z,76.40
2023-07-24T00:22:26.604Z,76.00
2023-07-24T00:22:38.637Z,76.29
2023-07-24T00:22:50.739Z,76.45
2023-07-24T00:23:02.706Z,76.95
2023-07-24T00:23:14.716Z,76.38
2023-07-24T00:23:26.789Z,76.59
2023-07-24T00:23:38.861Z,76.89
2023-07-24T00:23:50.809Z,76.63
2023-07-24T00:24:02.779Z,76.49
2023-07-24T00:24:14.791Z,76.51
2023-07-24T00:24:26.834Z,76.75
2023-07-24T00:24:38.831Z,76.84
2023-07-24T00:24:50.993Z,76.44
2023-07-24T00:25:03.069Z,75.94
2023-07-24T00:25:15.000Z,75.63
2023-07-24T00:25:27.077Z,75.44
2023-07-24T00:25:39.002Z,75.07
2023-07-24T00:25:51.023Z,75.12
2023-07-24T00:26:03.026Z,75.19
2023-07-24T00:26:15.019Z,75.42
2023-07-24T00:26:27.267Z,75.96
2023-07-24T00:26:39.380Z,75.79
2023-07-24T00:26:51.314Z,76.13
2023-07-24T00:27:03.919Z,76.07
2023-07-24T00:27:15.853Z,75.94
2023-07-24T00:27:28.655Z,76.06
2023-07-24T00:27:40.650Z,76.47
2023-07-24T00:27:52.800Z,76.33
2023-07-24T00:28:04.803Z,76.70
2023-07-24T00:28:16.804Z,76.51
2023-07-24T00:28:28.790Z,76.43
2023-07-24T00:28:41.129Z,76.67
2023-07-24T00:28:53.091Z,76.74
2023-07-24T00:29:05.046Z,76.69
2023-07-24T00:29:17.075Z,76.69
2023-07-24T00:29:29.027Z,76.64
2023-07-24T00:29:41.048Z,76.33
2023-07-24T00:29:53.056Z,76.29
2023-07-24T00:30:05.603Z,77.28
2023-07-24T00:30:17.576Z,77.11
2023-07-24T00:30:29.629Z,76.76
2023-07-24T00:30:41.607Z,76.48
2023-07-24T00:30:53.611Z,76.74
2023-07-24T00:31:05.611Z,76.79
2023-07-24T00:31:17.588Z,76.70
2023-07-24T00:31:29.561Z,76.88
2023-07-24T00:31:41.509Z,76.81
2023-07-24T00:31:53.531Z,76.57
2023-07-24T00:32:06.057Z,76.33
2023-07-24T00:32:18.016Z,76.51
2023-07-24T00:32:30.053Z,76.20
2023-07-24T00:32:42.201Z,76.39
2023-07-24T00:32:54.311Z,76.17
2023-07-24T00:33:06.321Z,76.24
2023-07-24T00:33:18.312Z,75.98
2023-07-24T00:33:30.320Z,75.67
2023-07-24T00:33:42.298Z,75.84
2023-07-24T00:33:54.267Z,76.41
2023-07-24T00:34:06.250Z,76.15
2023-07-24T00:34:18.276Z,76.46
2023-07-24T00:34:30.225Z,76.43
2023-07-24T00:34:42.240Z,77.04
2023-07-24T00:34:54.260Z,77.14
2023-07-24T00:35:06.940Z,77.05
2023-07-24T00:35:18.939Z,76.47
2023-07-24T00:35:30.996Z,76.62
2023-07-24T00:35:42.956Z,77.07
2023-07-24T00:35:58.664Z,77.03
2023-07-24T00:36:10.642Z,76.95
2023-07-24T00:36:22.626Z,77.19
2023-07-24T00:36:34.608Z,77.48
2023-07-24T00:36:46.599Z,78.28
2023-07-24T00:36:58.561Z,78.58
2023-07-24T00:37:10.613Z,77.92
2023-07-24T00:37:22.653Z,77.58
2023-07-24T00:37:34.692Z,77.50
2023-07-24T00:37:46.638Z,77.29
2023-07-24T00:37:58.589Z,77.50
2023-07-24T00:38:10.552Z,77.18
2023-07-24T00:38:22.530Z,76.90
2023-07-24T00:38:34.526Z,76.90
2023-07-24T00:38:46.490Z,76.76
2023-07-24T00:38:58.464Z,77.10
2023-07-24T00:39:10.482Z,76.66
2023-07-24T00:39:22.534Z,76.63
2023-07-24T00:39:34.490Z,76.53
2023-07-24T00:39:46.464Z,76.36
2023-07-24T00:39:58.500Z,77.06
2023-07-24T00:40:10.849Z,76.89
2023-07-24T00:40:22.880Z,77.11
2023-07-24T00:40:34.869Z,76.78
2023-07-24T00:40:46.841Z,76.77
2023-07-24T00:40:59.146Z,77.03
2023-07-24T00:41:11.161Z,77.14
2023-07-24T00:41:23.300Z,77.39
2023-07-24T00:41:35.289Z,77.70
2023-07-24T00:41:47.351Z,77.59
2023-07-24T00:41:59.349Z,77.95
2023-07-24T00:42:11.393Z,77.61
2023-07-24T00:42:23.663Z,77.78
2023-07-24T00:42:35.647Z,77.80
2023-07-24T00:42:49.362Z,77.60
2023-07-24T00:43:01.327Z,77.67
2023-07-24T00:43:13.271Z,77.24
2023-07-24T00:43:25.202Z,77.14
2023-07-24T00:43:37.195Z,77.13
2023-07-24T00:43:49.181Z,77.16
2023-07-24T00:44:01.260Z,77.10
2023-07-24T00:44:13.340Z,77.62
2023-07-24T00:44:25.406Z,77.56
2023-07-24T00:44:38.673Z,77.48
2023-07-24T00:44:50.682Z,78.22
2023-07-24T00:45:04.231Z,77.88
2023-07-24T00:45:17.623Z,78.02
2023-07-24T00:45:29.742Z,78.04
2023-07-24T00:45:41.902Z,78.08
2023-07-24T00:45:55.674Z,78.06
2023-07-24T00:46:07.781Z,78.48
2023-07-24T00:46:19.995Z,78.24
2023-07-24T00:46:34.199Z,78.58
2023-07-24T00:46:46.948Z,78.73
2023-07-24T00:46:59.244Z,79.40
2023-07-24T00:47:11.399Z,79.25
2023-07-24T00:47:23.880Z,79.98
2023-07-24T00:47:35.956Z,79.97
2023-07-24T00:47:48.182Z,79.70
2023-07-24T00:48:01.453Z,79.68
2023-07-24T00:48:13.725Z,79.87
2023-07-24T00:48:25.717Z,79.58
2023-07-24T00:48:39.037Z,79.80
2023-07-24T00:48:51.756Z,79.24
2023-07-24T00:49:05.655Z,79.18
2023-07-24T00:49:18.529Z,79.33
2023-07-24T00:49:30.636Z,79.22
2023-07-24T00:49:42.798Z,79.45
2023-07-24T00:49:56.110Z,79.28
2023-07-24T00:50:09.589Z,79.14
2023-07-24T00:50:22.448Z,79.19
2023-07-24T00:50:34.904Z,79.27
2023-07-24T00:50:47.058Z,79.34
2023-07-24T00:50:59.141Z,79.25
2023-07-24T00:51:11.477Z,79.35
2023-07-24T00:51:23.616Z,79.31
2023-07-24T00:51:35.923Z,78.96
2023-07-24T00:51:48.194Z,79.08
2023-07-24T00:52:00.302Z,79.16
2023-07-24T00:52:13.409Z,79.31
2023-07-24T00:52:26.108Z,79.00
2023-07-24T00:52:38.597Z,78.85
2023-07-24T00:52:50.588Z,78.78
2023-07-24T00:53:02.896Z,78.99
2023-07-24T00:53:17.596Z,78.73
2023-07-24T00:53:29.666Z,79.07
2023-07-24T00:53:41.718Z,78.90
2023-07-24T00:53:55.152Z,78.80
2023-07-24T00:54:08.207Z,78.72
2023-07-24T00:54:22.802Z,78.70
2023-07-24T00:54:35.518Z,78.56
2023-07-24T00:54:47.805Z,79.23
2023-07-24T00:55:00.491Z,79.15
2023-07-24T00:55:14.299Z,78.88
2023-07-24T00:55:26.717Z,79.02
2023-07-24T00:55:39.960Z,78.57
2023-07-24T00:55:52.028Z,78.33
2023-07-24T00:56:04.314Z,78.86
2023-07-24T00:56:16.528Z,78.70
2023-07-24T00:56:30.052Z,78.78
2023-07-24T00:56:42.197Z,79.03
2023-07-24T00:56:54.743Z,78.32
2023-07-24T00:57:07.156Z,78.40
2023-07-24T00:57:19.228Z,78.45
2023-07-24T00:57:31.554Z,78.35
2023-07-24T00:57:44.619Z,78.73
2023-07-24T00:57:59.071Z,79.32
2023-07-24T00:58:12.423Z,79.05
2023-07-24T00:58:24.984Z,78.99
2023-07-24T00:58:38.556Z,78.62
2023-07-24T00:58:50.693Z,78.36
2023-07-24T00:59:02.822Z,78.02
2023-07-24T00:59:16.054Z,78.14
2023-07-24T00:59:28.292Z,78.03
2023-07-24T00:59:43.046Z,78.17
2023-07-24T00:59:55.592Z,78.14
2023-07-24T01:00:08.476Z,77.78
2023-07-24T01:00:20.704Z,77.86
2023-07-24T01:00:33.320Z,78.05
2023-07-24T01:00:45.694Z,77.90
2023-07-24T01:00:57.947Z,77.99
2023-07-24T01:01:11.982Z,78.42
2023-07-24T01:01:25.018Z,78.61
2023-07-24T01:01:38.799Z,78.43
2023-07-24T01:01:51.193Z,78.43
2023-07-24T01:02:03.437Z,78.08
2023-07-24T01:02:15.500Z,77.86
2023-07-24T01:02:28.465Z,78.04
2023-07-24T01:02:40.533Z,77.92
2023-07-24T01:02:52.870Z,77.53
2023-07-24T01:03:05.202Z,77.28
2023-07-24T01:03:17.368Z,77.06
2023-07-24T01:03:35.946Z,76.90
2023-07-24T01:03:48.048Z,77.16
2023-07-24T01:04:00.206Z,77.03
2023-07-24T01:04:12.213Z,77.61
2023-07-24T01:04:24.342Z,77.74
2023-07-24T01:04:36.403Z,77.64
2023-07-24T01:04:48.631Z,77.38
2023-07-24T01:05:00.766Z,77.19
2023-07-24T01:05:16.027Z,77.27
2023-07-24T01:05:28.442Z,77.61
2023-07-24T01:05:41.456Z,77.59
2023-07-24T01:05:55.812Z,77.48
2023-07-24T01:06:07.789Z,77.62
2023-07-24T01:06:19.983Z,77.83
2023-07-24T01:06:32.419Z,78.51
2023-07-24T01:06:44.901Z,78.39
2023-07-24T01:06:56.954Z,78.12
2023-07-24T01:07:09.738Z,78.12
2023-07-24T01:07:21.772Z,77.70
2023-07-24T01:07:33.869Z,77.23
2023-07-24T01:07:45.935Z,77.73
2023-07-24T01:07:58.392Z,78.04
2023-07-24T01:08:10.396Z,78.70
2023-07-24T01:08:22.395Z,78.79
2023-07-24T01:08:34.581Z,78.63
2023-07-24T01:08:46.565Z,78.20
2023-07-24T01:08:58.541Z,78.07
2023-07-24T01:09:11.576Z,77.35
2023-07-24T01:09:23.656Z,77.72
2023-07-24T01:09:35.618Z,77.40
2023-07-24T01:09:48.507Z,77.35
2023-07-24T01:10:00.708Z,77.11
2023-07-24T01:10:12.750Z,77.14
2023-07-24T01:10:24.956Z,77.07
2023-07-24T01:10:36.938Z,77.09
2023-07-24T01:10:48.928Z,77.23
2023-07-24T01:11:09.040Z,77.75
2023-07-24T01:11:48.594Z,77.95
2023-07-24T01:12:09.997Z,77.94
2023-07-24T01:12:36.408Z,77.66
2023-07-24T01:12:48.320Z,77.25
2023-07-24T01:13:15.237Z,77.12
2023-07-24T01:13:33.103Z,77.45
2023-07-24T01:13:57.388Z,78.05
2023-07-24T01:14:27.934Z,78.27
2023-07-24T01:15:38.816Z,77.67
2023-07-24T01:16:15.464Z,77.25
2023-07-24T01:16:34.319Z,76.98
2023-07-24T01:16:48.615Z,76.75
2023-07-24T01:17:02.157Z,76.67
2023-07-24T01:17:21.577Z,76.61
2023-07-24T01:17:40.118Z,76.78
2023-07-24T01:18:00.747Z,77.25
2023-07-24T01:18:14.737Z,77.26
2023-07-24T01:18:29.182Z,77.20
2023-07-24T01:18:43.967Z,77.20
2023-07-24T01:18:58.002Z,76.90
2023-07-24T01:19:40.761Z,76.99
2023-07-24T01:19:59.228Z,77.02
2023-07-24T01:20:13.959Z,77.03
2023-07-24T01:20:29.779Z,77.42
2023-07-24T01:20:48.365Z,77.32
2023-07-24T01:21:01.931Z,77.05
2023-07-24T01:21:17.609Z,76.78
2023-07-24T01:21:39.673Z,76.29
2023-07-24T01:22:04.535Z,76.35
2023-07-24T01:22:28.436Z,76.24
2023-07-24T01:22:46.089Z,76.03
2023-07-24T01:23:06.880Z,76.07
2023-07-24T01:23:34.380Z,76.68
2023-07-24T01:23:47.197Z,76.35
2023-07-24T01:24:15.807Z,76.95
2023-07-24T01:24:57.195Z,77.40
2023-07-24T01:25:15.069Z,77.21
2023-07-24T01:25:37.870Z,77.95
2023-07-24T01:26:00.787Z,78.40
2023-07-24T01:26:13.166Z,77.87
2023-07-24T01:26:26.456Z,77.88
2023-07-24T01:26:38.980Z,78.24
2023-07-24T01:26:51.560Z,78.25
2023-07-24T01:27:03.995Z,78.13
2023-07-24T01:27:25.036Z,78.42
2023-07-24T01:27:37.017Z,77.74
2023-07-24T01:27:49.018Z,77.65
2023-07-24T01:28:01.020Z,77.99
2023-07-24T01:28:12.982Z,78.07
2023-07-24T01:28:28.219Z,77.96
2023-07-24T01:28:40.857Z,77.27
2023-07-24T01:28:53.024Z,77.37
2023-07-24T01:29:04.961Z,77.52
2023-07-24T01:29:16.951Z,77.44
2023-07-24T01:29:29.048Z,77.67
2023-07-24T01:29:41.025Z,78.16
2023-07-24T01:29:53.095Z,78.09
2023-07-24T01:30:05.581Z,78.02
2023-07-24T01:30:19.608Z,77.90
2023-07-24T01:30:31.660Z,78.00
2023-07-24T01:30:43.678Z,77.83
2023-07-24T01:30:56.485Z,77.53
2023-07-24T01:31:08.524Z,77.89
2023-07-24T01:31:20.522Z,77.68
2023-07-24T01:31:32.510Z,77.61
2023-07-24T01:31:44.518Z,77.69
2023-07-24T01:31:56.952Z,77.57
2023-07-24T01:32:09.211Z,77.37
2023-07-24T01:32:21.760Z,77.27
2023-07-24T01:32:33.908Z,77.34
2023-07-24T01:32:46.411Z,77.51
2023-07-24T01:32:58.569Z,77.41
2023-07-24T01:33:10.714Z,77.66
2023-07-24T01:33:23.444Z,78.04
2023-07-24T01:33:36.626Z,78.43
2023-07-24T01:33:49.146Z,78.22
2023-07-24T01:34:01.157Z,78.16
2023-07-24T01:34:13.346Z,78.02
2023-07-24T01:34:25.465Z,77.92
2023-07-24T01:34:37.418Z,78.01
2023-07-24T01:34:50.159Z,77.95
2023-07-24T01:35:02.182Z,77.91
2023-07-24T01:35:14.388Z,78.32
2023-07-24T01:35:28.121Z,78.26
2023-07-24T01:35:40.484Z,78.68
2023-07-24T01:35:56.498Z,78.44
2023-07-24T01:36:08.853Z,78.31
2023-07-24T01:36:21.000Z,78.01
2023-07-24T01:36:33.217Z,77.89
2023-07-24T01:36:45.475Z,77.84
2023-07-24T01:36:57.815Z,78.05
2023-07-24T01:37:11.967Z,78.04
2023-07-24T01:37:26.603Z,78.06
2023-07-24T01:37:41.380Z,78.11
2023-07-24T01:37:53.578Z,77.90
2023-07-24T01:38:05.851Z,77.52
2023-07-24T01:38:18.471Z,77.57
2023-07-24T01:38:32.775Z,77.63
2023-07-24T01:38:45.048Z,77.83
2023-07-24T01:38:57.693Z,77.77
2023-07-24T01:39:11.041Z,77.94
2023-07-24T01:39:23.380Z,77.60
2023-07-24T01:39:36.220Z,77.57
2023-07-24T01:39:49.353Z,77.60
2023-07-24T01:40:01.790Z,77.68
2023-07-24T01:40:14.626Z,77.62
2023-07-24T01:40:26.676Z,77.71
2023-07-24T01:40:40.957Z,77.74
2023-07-24T01:40:57.196Z,77.54
2023-07-24T01:41:09.484Z,77.39
2023-07-24T01:41:21.692Z,77.17
2023-07-24T01:41:33.745Z,77.30
2023-07-24T01:41:45.909Z,77.08
2023-07-24T01:41:58.320Z,77.10
2023-07-24T01:42:10.673Z,77.11
2023-07-24T01:42:22.621Z,77.07
2023-07-24T01:42:35.413Z,77.40
2023-07-24T01:42:47.490Z,77.37
2023-07-24T01:43:00.668Z,77.45
2023-07-24T01:43:13.015Z,77.61
2023-07-24T01:43:28.093Z,77.94
2023-07-24T01:43:40.091Z,77.87
2023-07-24T01:43:52.226Z,77.62
2023-07-24T01:44:04.307Z,77.93
2023-07-24T01:44:16.321Z,79.01
2023-07-24T01:44:28.341Z,78.85
2023-07-24T01:44:40.346Z,79.36
2023-07-24T01:44:56.262Z,79.36
2023-07-24T01:45:09.321Z,79.65
2023-07-24T01:45:21.391Z,79.02
2023-07-24T01:45:33.480Z,78.36
2023-07-24T01:45:45.572Z,77.86
2023-07-24T01:45:57.683Z,77.55
2023-07-24T01:46:09.982Z,77.29
2023-07-24T01:46:22.058Z,77.14
2023-07-24T01:46:34.178Z,77.34
2023-07-24T01:46:46.538Z,77.36
2023-07-24T01:46:58.562Z,77.79
2023-07-24T01:47:10.563Z,78.08
2023-07-24T01:47:23.270Z,78.23
2023-07-24T01:47:35.499Z,78.62
2023-07-24T01:47:47.526Z,78.73
2023-07-24T01:48:00.994Z,79.38
2023-07-24T01:48:13.051Z,81.08
2023-07-24T01:48:25.005Z,81.46
2023-07-24T01:48:36.931Z,81.79
2023-07-24T01:48:49.360Z,81.58
2023-07-24T01:49:01.332Z,81.71
2023-07-24T01:49:13.296Z,81.10
2023-07-24T01:49:25.289Z,80.77
2023-07-24T01:49:37.453Z,80.59
2023-07-24T01:49:49.777Z,80.65
2023-07-24T01:50:01.986Z,80.61
2023-07-24T01:50:14.160Z,80.68
2023-07-24T01:50:26.330Z,80.90
2023-07-24T01:50:38.380Z,81.23
2023-07-24T01:50:51.152Z,80.98
2023-07-24T01:51:03.293Z,81.50
2023-07-24T01:51:15.372Z,81.53
2023-07-24T01:51:27.314Z,81.86
2023-07-24T01:51:39.236Z,82.07
2023-07-24T01:51:51.184Z,81.83
2023-07-24T01:52:03.374Z,81.68
2023-07-24T01:52:15.493Z,81.37
2023-07-24T01:52:27.683Z,81.35
2023-07-24T01:52:39.622Z,81.20
2023-07-24T01:52:51.784Z,81.00
2023-07-24T01:53:03.868Z,80.91
2023-07-24T01:53:15.911Z,80.82
2023-07-24T01:53:27.890Z,81.37
2023-07-24T01:53:39.974Z,81.99
2023-07-24T01:53:51.928Z,82.32
2023-07-24T01:54:03.922Z,82.73
2023-07-24T01:54:15.874Z,82.78
2023-07-24T01:54:27.812Z,82.41
2023-07-24T01:54:39.993Z,82.26
2023-07-24T01:54:51.966Z,82.34
2023-07-24T01:55:04.239Z,82.07
2023-07-24T01:55:16.317Z,81.72
2023-07-24T01:55:28.287Z,81.66
2023-07-24T01:55:40.287Z,81.29
2023-07-24T01:55:52.258Z,80.37
2023-07-24T01:56:04.440Z,80.82
2023-07-24T01:56:16.446Z,80.79
2023-07-24T01:56:28.637Z,79.92
2023-07-24T01:56:41.062Z,79.85
2023-07-24T01:56:53.429Z,80.16
2023-07-24T01:57:06.003Z,80.51
2023-07-24T01:57:18.038Z,81.06
2023-07-24T01:57:29.944Z,81.32
2023-07-24T01:57:41.897Z,81.71
2023-07-24T01:57:53.865Z,81.93
2023-07-24T01:58:05.899Z,82.00
2023-07-24T01:58:17.920Z,81.91
2023-07-24T01:58:29.962Z,81.95
2023-07-24T01:58:41.940Z,82.64
2023-07-24T01:58:53.891Z,83.57
2023-07-24T01:59:06.352Z,83.34
2023-07-24T01:59:18.382Z,82.95
2023-07-24T01:59:30.350Z,82.82
2023-07-24T01:59:42.396Z,82.83
2023-07-24T01:59:54.405Z,82.79
2023-07-24T02:00:07.089Z,83.04
2023-07-24T02:00:19.158Z,82.99
2023-07-24T02:00:31.359Z,82.65
2023-07-24T02:00:43.314Z,82.78
2023-07-24T02:00:58.029Z,82.84
2023-07-24T02:01:10.044Z,82.51
2023-07-24T02:01:22.091Z,82.32
2023-07-24T02:01:34.136Z,82.10
2023-07-24T02:01:46.166Z,81.93
2023-07-24T02:01:58.171Z,82.06
2023-07-24T02:02:10.245Z,82.08
2023-07-24T02:02:22.286Z,81.92
2023-07-24T02:02:34.353Z,81.89
2023-07-24T02:02:46.490Z,81.67
2023-07-24T02:02:58.663Z,81.68
2023-07-24T02:03:10.846Z,81.63
2023-07-24T02:03:23.014Z,80.97
2023-07-24T02:03:35.310Z,81.54
2023-07-24T02:03:47.412Z,81.92
2023-07-24T02:03:59.431Z,82.51
2023-07-24T02:04:11.376Z,82.65
2023-07-24T02:04:23.678Z,82.88
2023-07-24T02:04:35.686Z,82.85
2023-07-24T02:04:47.816Z,82.88
2023-07-24T02:04:59.741Z,82.84
2023-07-24T02:05:11.820Z,82.79
2023-07-24T02:05:23.836Z,82.44
2023-07-24T02:05:36.567Z,81.57
2023-07-24T02:05:52.324Z,80.90
2023-07-24T02:06:04.348Z,80.92
2023-07-24T02:06:16.268Z,81.50
2023-07-24T02:06:28.505Z,82.17
2023-07-24T02:06:40.867Z,81.97
2023-07-24T02:06:52.865Z,82.11
2023-07-24T02:07:05.302Z,81.09
2023-07-24T02:07:17.294Z,81.33
2023-07-24T02:07:29.291Z,81.30
2023-07-24T02:07:41.260Z,81.44
2023-07-24T02:07:53.245Z,81.78
2023-07-24T02:08:05.446Z,82.47
2023-07-24T02:08:17.386Z,83.80
2023-07-24T02:08:29.350Z,84.25
2023-07-24T02:08:42.036Z,84.37
2023-07-24T02:08:54.107Z,84.57
2023-07-24T02:09:06.087Z,84.16
2023-07-24T02:09:21.475Z,84.18
2023-07-24T02:09:33.469Z,84.35
2023-07-24T02:09:46.088Z,84.22
2023-07-24T02:09:58.303Z,84.34
2023-07-24T02:10:10.495Z,84.21
2023-07-24T02:10:22.415Z,84.14
2023-07-24T02:10:38.776Z,83.81
2023-07-24T02:10:53.359Z,83.67
2023-07-24T02:11:05.382Z,83.35
2023-07-24T02:11:17.320Z,83.47
2023-07-24T02:11:29.369Z,83.24
2023-07-24T02:11:41.400Z,83.45
2023-07-24T02:11:53.406Z,83.40
2023-07-24T02:12:06.006Z,83.19
2023-07-24T02:12:17.964Z,83.53
2023-07-24T02:12:29.914Z,83.72
2023-07-24T02:12:42.208Z,83.62
2023-07-24T02:12:54.204Z,83.48
2023-07-24T02:13:08.398Z,83.53
2023-07-24T02:13:20.377Z,83.35
2023-07-24T02:13:32.343Z,83.36
2023-07-24T02:13:47.964Z,83.16
2023-07-24T02:14:00.881Z,83.15
2023-07-24T02:14:14.786Z,82.95
2023-07-24T02:14:27.791Z,82.79
2023-07-24T02:14:39.765Z,82.72
2023-07-24T02:14:52.736Z,82.59
2023-07-24T02:15:05.106Z,82.67
2023-07-24T02:15:17.212Z,82.69
2023-07-24T02:15:29.164Z,82.89
2023-07-24T02:15:41.617Z,82.79
2023-07-24T02:15:54.960Z,82.61
2023-07-24T02:16:07.100Z,82.43
2023-07-24T02:16:19.128Z,82.28
2023-07-24T02:16:31.286Z,82.55
2023-07-24T02:16:43.492Z,82.46
2023-07-24T02:16:55.522Z,82.44
2023-07-24T02:17:07.547Z,82.26
2023-07-24T02:17:19.622Z,82.29
2023-07-24T02:17:31.739Z,82.22
2023-07-24T02:17:43.808Z,82.43
2023-07-24T02:17:55.868Z,82.50
2023-07-24T02:18:07.854Z,82.45
2023-07-24T02:18:19.853Z,82.26
2023-07-24T02:18:31.870Z,82.23
2023-07-24T02:18:44.732Z,82.15
2023-07-24T02:18:56.729Z,82.17
2023-07-24T02:19:08.702Z,82.34
2023-07-24T02:19:20.675Z,82.25
2023-07-24T02:19:32.686Z,82.36
2023-07-24T02:19:45.193Z,82.47
2023-07-24T02:19:57.135Z,81.84
2023-07-24T02:20:09.417Z,82.11
2023-07-24T02:20:21.364Z,82.21
2023-07-24T02:20:33.305Z,82.46
2023-07-24T02:20:52.271Z,82.25
2023-07-24T02:21:04.411Z,82.07
2023-07-24T02:21:16.381Z,81.98
2023-07-24T02:21:28.410Z,81.76
2023-07-24T02:21:41.852Z,81.37
2023-07-24T02:21:53.898Z,81.36
2023-07-24T02:22:05.846Z,81.37
2023-07-24T02:22:17.975Z,81.09
2023-07-24T02:22:29.916Z,81.04
2023-07-24T02:22:41.888Z,80.96
2023-07-24T02:22:53.830Z,81.02
2023-07-24T02:23:05.802Z,80.95
2023-07-24T02:23:17.812Z,80.92
2023-07-24T02:23:29.830Z,80.65
2023-07-24T02:23:41.757Z,80.62
2023-07-24T02:23:53.686Z,80.61
2023-07-24T02:24:05.754Z,80.70
2023-07-24T02:24:17.716Z,80.56
2023-07-24T02:24:29.681Z,80.74
2023-07-24T02:24:41.754Z,80.67
2023-07-24T02:24:53.802Z,80.76
2023-07-24T02:25:06.265Z,80.31
2023-07-24T02:25:18.305Z,80.23
2023-07-24T02:25:30.301Z,80.30
2023-07-24T02:25:42.413Z,80.20
2023-07-24T02:25:54.481Z,80.18
2023-07-24T02:26:06.500Z,80.37
2023-07-24T02:26:18.515Z,80.67
2023-07-24T02:26:30.797Z,80.49
2023-07-24T02:26:42.935Z,80.41
2023-07-24T02:26:54.957Z,80.27
2023-07-24T02:27:06.968Z,80.28
2023-07-24T02:27:29.671Z,80.45
2023-07-24T02:27:41.641Z,80.52
2023-07-24T02:27:53.607Z,80.65
2023-07-24T02:28:05.609Z,80.36
2023-07-24T02:28:17.528Z,80.42
2023-07-24T02:28:29.462Z,80.54
2023-07-24T02:28:41.444Z,80.57
2023-07-24T02:28:54.885Z,80.61
2023-07-24T02:29:06.867Z,80.68
2023-07-24T02:29:18.880Z,80.24
2023-07-24T02:29:30.869Z,80.50
2023-07-24T02:29:42.864Z,80.96
2023-07-24T02:29:55.494Z,81.14
2023-07-24T02:30:07.920Z,80.89
2023-07-24T02:30:19.871Z,80.77
2023-07-24T02:30:31.844Z,80.87
2023-07-24T02:30:43.928Z,80.99
2023-07-24T02:30:57.646Z,81.35
2023-07-24T02:31:09.686Z,81.36
2023-07-24T02:31:21.734Z,81.43
2023-07-24T02:31:34.556Z,81.31
2023-07-24T02:31:46.543Z,81.24
2023-07-24T02:31:59.461Z,80.86
2023-07-24T02:32:11.430Z,80.93
2023-07-24T02:32:23.465Z,81.20
2023-07-24T02:32:35.556Z,81.73
2023-07-24T02:32:47.545Z,81.45
2023-07-24T02:32:59.565Z,81.29
2023-07-24T02:33:11.530Z,81.09
2023-07-24T02:33:24.016Z,81.48
2023-07-24T02:33:35.993Z,81.05
2023-07-24T02:33:47.974Z,80.95
2023-07-24T02:33:59.914Z,81.09
2023-07-24T02:34:11.883Z,81.12
2023-07-24T02:34:27.001Z,81.00
2023-07-24T02:34:38.985Z,80.96
2023-07-24T02:34:52.334Z,81.08
2023-07-24T02:35:04.689Z,81.48
2023-07-24T02:35:16.721Z,81.49
2023-07-24T02:35:28.674Z,81.32
2023-07-24T02:35:41.905Z,81.43
2023-07-24T02:35:54.070Z,81.32
2023-07-24T02:36:06.035Z,81.40
2023-07-24T02:36:18.139Z,81.19
2023-07-24T02:36:30.351Z,81.35
2023-07-24T02:36:42.806Z,81.30
2023-07-24T02:36:54.893Z,81.35
2023-07-24T02:37:07.078Z,81.77
2023-07-24T02:37:19.932Z,81.52
2023-07-24T02:37:31.923Z,81.37
2023-07-24T02:37:43.916Z,81.08
2023-07-24T02:37:55.963Z,81.22
2023-07-24T02:38:08.628Z,81.26
2023-07-24T02:38:20.721Z,81.04
2023-07-24T02:38:32.837Z,81.44
2023-07-24T02:38:44.784Z,81.47
2023-07-24T02:38:56.782Z,81.56
2023-07-24T02:39:09.106Z,81.33
2023-07-24T02:39:21.514Z,81.29
2023-07-24T02:39:33.554Z,81.15
2023-07-24T02:39:46.020Z,81.19
2023-07-24T02:39:58.040Z,81.19
2023-07-24T02:40:10.745Z,81.14
2023-07-24T02:40:22.796Z,81.36
2023-07-24T02:40:36.407Z,81.29
2023-07-24T02:40:48.371Z,81.67
2023-07-24T02:41:00.699Z,81.68
2023-07-24T02:41:12.629Z,81.26
2023-07-24T02:41:24.725Z,81.32
2023-07-24T02:41:36.719Z,81.38
2023-07-24T02:41:49.759Z,81.57
2023-07-24T02:42:01.753Z,81.69
2023-07-24T02:42:13.729Z,81.59
2023-07-24T02:42:25.755Z,81.75
2023-07-24T02:42:37.793Z,81.84
2023-07-24T02:42:49.832Z,81.81
2023-07-24T02:43:02.105Z,81.16
2023-07-24T02:43:14.145Z,81.42
2023-07-24T02:43:26.144Z,81.36
2023-07-24T02:43:38.164Z,81.13
2023-07-24T02:43:50.132Z,81.23
2023-07-24T02:44:04.509Z,81.36
2023-07-24T02:44:16.442Z,81.29
2023-07-24T02:44:28.412Z,81.43
2023-07-24T02:44:40.446Z,81.50
2023-07-24T02:44:54.165Z,81.33
2023-07-24T02:45:11.805Z,81.11
2023-07-24T02:45:23.860Z,81.21
2023-07-24T02:45:36.151Z,80.97
2023-07-24T02:45:48.191Z,81.01
2023-07-24T02:46:03.739Z,80.94
2023-07-24T02:46:15.818Z,80.97
2023-07-24T02:46:28.209Z,80.87